createdAt,value
2018-03-24T00:00:10.950Z,0.00
2018-03-24T00:01:10.976Z,0.00
2018-03-24T00:02:11.000Z,0.00
2018-03-24T00:03:11.025Z,0.00
2018-03-24T00:04:11.050Z,0.00
2018-03-24T00:05:11.075Z,0.00
2018-03-24T00:06:11.099Z,0.00
2018-03-24T00:07:11.124Z,0.00
2018-03-24T00:08:11.147Z,0.00
2018-03-24T00:09:11.173Z,0.00
2018-03-24T00:10:11.198Z,0.00
2018-03-24T00:11:11.226Z,0.00
2018-03-24T00:12:11.246Z,0.00
2018-03-24T00:13:11.272Z,0.00
2018-03-24T00:14:11.297Z,0.00
2018-03-24T00:15:11.322Z,0.00
2018-03-24T00:16:11.344Z,0.00
2018-03-24T00:17:11.370Z,0.00
2018-03-24T00:18:11.395Z,0.00
2018-03-24T00:19:11.420Z,0.00
2018-03-24T00:20:11.444Z,0.00
2018-03-24T00:21:11.469Z,0.00
2018-03-24T00:22:11.494Z,0.00
2018-03-24T00:23:11.519Z,0.00
2018-03-24T00:24:11.543Z,0.00
2018-03-24T00:25:11.568Z,0.00
2018-03-24T00:26:11.593Z,0.00
2018-03-24T00:27:11.621Z,0.00
2018-03-24T00:28:11.642Z,0.00
2018-03-24T00:29:11.669Z,0.00
2018-03-24T00:30:11.697Z,0.00
2018-03-24T00:31:11.717Z,0.00
2018-03-24T00:32:11.762Z,0.00
2018-03-24T00:33:11.768Z,0.00
2018-03-24T00:34:11.792Z,0.00
2018-03-24T00:35:11.815Z,0.00
2018-03-24T00:36:11.844Z,0.00
2018-03-24T00:37:11.865Z,0.00
2018-03-24T00:38:11.890Z,0.00
2018-03-24T00:39:11.916Z,0.00
2018-03-24T00:40:11.939Z,0.00
2018-03-24T00:41:11.965Z,0.00
2018-03-24T00:42:11.991Z,0.00
2018-03-24T00:43:12.015Z,0.00
2018-03-24T00:44:12.039Z,0.00
2018-03-24T00:45:12.064Z,0.00
2018-03-24T00:46:12.089Z,0.00
2018-03-24T00:47:12.115Z,0.00
2018-03-24T00:48:12.139Z,0.00
2018-03-24T00:49:12.165Z,0.00
2018-03-24T00:50:12.190Z,0.00
2018-03-24T00:51:12.217Z,0.00
2018-03-24T00:52:12.238Z,0.00
2018-03-24T00:53:12.267Z,0.00
2018-03-24T00:54:12.289Z,0.00
2018-03-24T00:55:12.314Z,0.00
2018-03-24T00:56:12.339Z,0.00
2018-03-24T00:57:12.366Z,0.00
2018-03-24T00:58:12.388Z,0.00
2018-03-24T00:59:12.414Z,0.00
2018-03-24T01:00:12.439Z,0.00
2018-03-24T01:01:12.468Z,0.00
2018-03-24T01:02:12.489Z,0.00
2018-03-24T01:03:12.514Z,0.00
2018-03-24T01:04:12.539Z,0.00
2018-03-24T01:05:12.564Z,0.00
2018-03-24T01:06:12.590Z,0.00
2018-03-24T01:07:12.615Z,0.00
2018-03-24T01:08:12.644Z,0.00
2018-03-24T01:09:12.665Z,0.00
2018-03-24T01:10:12.690Z,0.00
2018-03-24T01:11:12.714Z,0.00
2018-03-24T01:12:12.741Z,0.00
2018-03-24T01:13:12.765Z,0.00
2018-03-24T01:14:12.796Z,0.00
2018-03-24T01:15:12.816Z,0.00
2018-03-24T01:16:12.841Z,0.00
2018-03-24T01:17:12.866Z,0.00
2018-03-24T01:18:12.894Z,0.00
2018-03-24T01:19:12.919Z,0.00
2018-03-24T01:20:12.941Z,0.00
2018-03-24T01:21:12.966Z,0.00
2018-03-24T01:22:12.991Z,0.00
2018-03-24T01:23:13.017Z,0.00
2018-03-24T01:24:13.042Z,0.00
2018-03-24T01:25:13.068Z,0.00
2018-03-24T01:26:13.092Z,0.00
2018-03-24T01:27:13.117Z,0.00
2018-03-24T01:28:13.141Z,0.00
2018-03-24T01:29:13.169Z,0.00
2018-03-24T01:30:13.193Z,0.00
2018-03-24T01:31:13.217Z,0.00
2018-03-24T01:32:13.243Z,0.00
2018-03-24T01:33:13.267Z,0.00
2018-03-24T01:34:13.292Z,0.00
2018-03-24T01:35:13.322Z,0.00
2018-03-24T01:36:13.341Z,0.00
2018-03-24T01:37:13.366Z,0.00
2018-03-24T01:38:13.393Z,0.00
2018-03-24T01:39:13.418Z,0.00
2018-03-24T01:40:13.441Z,0.00
2018-03-24T01:41:13.468Z,0.00
2018-03-24T01:42:13.493Z,0.00
2018-03-24T01:43:13.517Z,0.00
2018-03-24T01:44:13.541Z,0.00
2018-03-24T01:45:13.567Z,0.00
2018-03-24T01:46:13.591Z,0.00
2018-03-24T01:47:13.616Z,0.00
2018-03-24T01:48:13.642Z,0.00
2018-03-24T01:49:13.667Z,0.00
2018-03-24T01:50:13.695Z,0.00
2018-03-24T01:51:13.717Z,0.00
2018-03-24T01:52:13.741Z,0.00
2018-03-24T01:53:13.767Z,0.00
2018-03-24T01:54:13.791Z,0.00
2018-03-24T01:55:13.816Z,0.00
2018-03-24T01:56:13.840Z,0.00
2018-03-24T01:57:13.866Z,0.00
2018-03-24T01:58:13.890Z,0.00
2018-03-24T01:59:13.916Z,0.00
2018-03-24T02:00:13.938Z,0.00
2018-03-24T02:01:13.966Z,0.00
2018-03-24T02:02:13.990Z,0.00
2018-03-24T02:03:14.015Z,0.00
2018-03-24T02:04:14.039Z,0.00
2018-03-24T02:05:14.070Z,0.00
2018-03-24T02:06:14.089Z,0.00
2018-03-24T02:07:14.113Z,0.00
2018-03-24T02:08:14.137Z,0.00
2018-03-24T02:09:14.166Z,0.00
2018-03-24T02:10:14.188Z,0.00
2018-03-24T02:11:14.213Z,0.00
2018-03-24T02:12:14.238Z,0.00
2018-03-24T02:13:14.263Z,0.00
2018-03-24T02:14:14.291Z,0.00
2018-03-24T02:15:14.314Z,0.00
2018-03-24T02:16:14.337Z,0.00
2018-03-24T02:17:14.362Z,0.00
2018-03-24T02:18:14.392Z,0.00
2018-03-24T02:19:14.411Z,0.00
2018-03-24T02:20:14.436Z,0.00
2018-03-24T02:21:14.460Z,0.00
2018-03-24T02:22:14.487Z,0.00
2018-03-24T02:23:14.511Z,0.00
2018-03-24T02:24:14.534Z,0.00
2018-03-24T02:25:14.560Z,0.00
2018-03-24T02:26:14.587Z,0.00
2018-03-24T02:27:14.610Z,0.00
2018-03-24T02:28:14.635Z,0.00
2018-03-24T02:29:14.662Z,0.00
2018-03-24T02:30:14.685Z,0.00
2018-03-24T02:31:14.713Z,0.00
2018-03-24T02:32:14.733Z,0.00
2018-03-24T02:33:14.760Z,0.00
2018-03-24T02:34:14.784Z,0.00
2018-03-24T02:35:14.810Z,0.00
2018-03-24T02:36:14.832Z,0.00
2018-03-24T02:37:14.858Z,0.00
2018-03-24T02:38:14.881Z,0.00
2018-03-24T02:39:14.909Z,0.00
2018-03-24T02:40:14.932Z,0.00
2018-03-24T02:41:14.957Z,0.00
2018-03-24T02:42:14.984Z,0.00
2018-03-24T02:43:15.007Z,0.00
2018-03-24T02:44:15.033Z,0.00
2018-03-24T02:45:15.056Z,0.00
2018-03-24T02:46:15.083Z,0.00
2018-03-24T02:47:15.107Z,0.00
2018-03-24T02:48:15.129Z,0.00
2018-03-24T02:49:15.155Z,0.00
2018-03-24T02:50:15.181Z,0.00
2018-03-24T02:51:15.215Z,0.00
2018-03-24T02:52:15.228Z,0.00
2018-03-24T02:53:15.254Z,0.00
2018-03-24T02:54:15.281Z,0.00
2018-03-24T02:55:15.303Z,0.00
2018-03-24T02:56:15.329Z,0.00
2018-03-24T02:57:15.352Z,0.00
2018-03-24T02:58:15.391Z,0.00
2018-03-24T02:59:15.401Z,0.00
2018-03-24T03:00:15.425Z,0.00
2018-03-24T03:01:15.450Z,0.00
2018-03-24T03:02:15.476Z,0.00
2018-03-24T03:03:15.501Z,0.00
2018-03-24T03:04:15.528Z,0.00
2018-03-24T03:05:15.549Z,0.00
2018-03-24T03:06:15.573Z,0.00
2018-03-24T03:07:15.599Z,0.00
2018-03-24T03:08:15.622Z,0.00
2018-03-24T03:09:15.647Z,0.00
2018-03-24T03:10:15.680Z,0.00
2018-03-24T03:11:15.696Z,0.00
2018-03-24T03:12:15.720Z,0.00
2018-03-24T03:13:15.763Z,0.00
2018-03-24T03:14:15.769Z,0.00
2018-03-24T03:15:15.794Z,0.00
2018-03-24T03:16:15.819Z,0.00
2018-03-24T03:17:15.846Z,0.00
2018-03-24T03:18:15.869Z,0.00
2018-03-24T03:19:15.892Z,0.00
2018-03-24T03:20:15.916Z,0.00
2018-03-24T03:21:15.941Z,0.00
2018-03-24T03:22:15.965Z,0.00
2018-03-24T03:23:15.989Z,0.00
2018-03-24T03:24:16.014Z,0.00
2018-03-24T03:25:16.039Z,0.00
2018-03-24T03:26:16.062Z,0.00
2018-03-24T03:27:16.087Z,0.00
2018-03-24T03:28:16.112Z,0.00
2018-03-24T03:29:16.135Z,0.00
2018-03-24T03:30:16.162Z,0.00
2018-03-24T03:31:16.188Z,0.00
2018-03-24T03:32:16.210Z,0.00
2018-03-24T03:33:16.235Z,0.00
2018-03-24T03:34:16.258Z,0.00
2018-03-24T03:35:16.284Z,0.00
2018-03-24T03:36:16.307Z,0.00
2018-03-24T03:37:16.333Z,0.00
2018-03-24T03:38:16.356Z,0.00
2018-03-24T03:39:16.382Z,0.00
2018-03-24T03:40:16.404Z,0.00
2018-03-24T03:41:16.429Z,0.00
2018-03-24T03:42:16.452Z,0.00
2018-03-24T03:43:16.479Z,0.00
2018-03-24T03:44:16.502Z,0.00
2018-03-24T03:45:16.527Z,0.00
2018-03-24T03:46:16.552Z,0.00
2018-03-24T03:47:16.576Z,0.00
2018-03-24T03:48:16.600Z,0.00
2018-03-24T03:49:16.624Z,0.00
2018-03-24T03:50:16.649Z,0.00
2018-03-24T03:51:16.673Z,0.00
2018-03-24T03:52:16.698Z,0.00
2018-03-24T03:53:16.721Z,0.00
2018-03-24T03:54:16.746Z,0.00
2018-03-24T03:55:16.770Z,0.00
2018-03-24T03:56:16.795Z,0.00
2018-03-24T03:57:16.821Z,0.00
2018-03-24T03:58:16.843Z,0.00
2018-03-24T03:59:16.868Z,0.00
2018-03-24T04:00:16.892Z,0.00
2018-03-24T04:01:16.915Z,0.00
2018-03-24T04:02:16.942Z,0.00
2018-03-24T04:03:16.965Z,0.00
2018-03-24T04:04:16.989Z,0.00
2018-03-24T04:05:17.012Z,0.00
2018-03-24T04:06:17.039Z,0.00
2018-03-24T04:07:17.064Z,0.00
2018-03-24T04:08:17.086Z,0.00
2018-03-24T04:09:17.112Z,0.00
2018-03-24T04:10:17.135Z,0.00
2018-03-24T04:11:17.159Z,0.00
2018-03-24T04:12:17.182Z,0.00
2018-03-24T04:13:17.212Z,0.00
2018-03-24T04:14:17.233Z,0.00
2018-03-24T04:15:17.258Z,0.00
2018-03-24T04:16:17.283Z,0.00
2018-03-24T04:17:17.306Z,0.00
2018-03-24T04:18:17.330Z,0.00
2018-03-24T04:19:17.355Z,0.00
2018-03-24T04:20:17.396Z,0.00
2018-03-24T04:21:17.403Z,0.00
2018-03-24T04:22:17.428Z,0.00
2018-03-24T04:23:17.452Z,0.00
2018-03-24T04:24:17.474Z,0.00
2018-03-24T04:25:17.501Z,0.00
2018-03-24T04:26:17.524Z,0.00
2018-03-24T04:27:17.549Z,0.00
2018-03-24T04:28:17.573Z,0.00
2018-03-24T04:29:17.597Z,0.00
2018-03-24T04:30:17.621Z,0.00
2018-03-24T04:31:17.645Z,0.00
2018-03-24T04:32:17.669Z,0.00
2018-03-24T04:33:17.693Z,0.00
2018-03-24T04:34:17.720Z,0.00
2018-03-24T04:35:17.749Z,0.00
2018-03-24T04:36:17.767Z,0.00
2018-03-24T04:37:17.790Z,0.00
2018-03-24T04:38:17.829Z,0.00
2018-03-24T04:39:17.839Z,0.00
2018-03-24T04:40:17.863Z,0.00
2018-03-24T04:41:17.887Z,0.00
2018-03-24T04:42:17.911Z,0.00
2018-03-24T04:43:17.935Z,0.00
2018-03-24T04:44:17.959Z,0.00
2018-03-24T04:45:17.987Z,0.00
2018-03-24T04:46:18.008Z,0.00
2018-03-24T04:47:18.033Z,0.00
2018-03-24T04:48:18.054Z,0.00
2018-03-24T04:49:18.079Z,0.00
2018-03-24T04:50:18.104Z,0.00
2018-03-24T04:51:18.129Z,0.00
2018-03-24T04:52:18.152Z,0.00
2018-03-24T04:53:18.185Z,0.00
2018-03-24T04:54:18.199Z,4.00
2018-03-24T04:55:18.224Z,0.00
2018-03-24T04:56:18.248Z,4.00
2018-03-24T04:57:18.272Z,4.00
2018-03-24T04:58:18.301Z,4.00
2018-03-24T04:59:18.322Z,4.00
2018-03-24T05:00:18.345Z,4.00
2018-03-24T05:01:18.372Z,4.00
2018-03-24T05:02:18.394Z,8.00
2018-03-24T05:03:18.427Z,8.00
2018-03-24T05:04:18.442Z,16.00
2018-03-24T05:05:18.466Z,12.00
2018-03-24T05:06:18.491Z,20.00
2018-03-24T05:07:18.516Z,20.00
2018-03-24T05:08:18.539Z,24.00
2018-03-24T05:09:18.564Z,32.00
2018-03-24T05:10:18.588Z,40.00
2018-03-24T05:11:18.613Z,44.00
2018-03-24T05:12:18.637Z,52.00
2018-03-24T05:13:18.660Z,64.00
2018-03-24T05:14:18.686Z,76.00
2018-03-24T05:15:18.710Z,88.00
2018-03-24T05:16:18.734Z,100.00
2018-03-24T05:17:18.758Z,120.00
2018-03-24T05:18:18.797Z,136.00
2018-03-24T05:19:18.806Z,156.00
2018-03-24T05:20:18.831Z,176.00
2018-03-24T05:21:18.856Z,196.00
2018-03-24T05:22:18.881Z,224.00
2018-03-24T05:23:18.905Z,248.00
2018-03-24T05:24:18.927Z,276.00
2018-03-24T05:25:18.951Z,308.00
2018-03-24T05:26:19.054Z,340.00
2018-03-24T05:27:19.002Z,372.00
2018-03-24T05:28:19.024Z,404.00
2018-03-24T05:29:19.050Z,440.00
2018-03-24T05:30:19.075Z,480.00
2018-03-24T05:31:19.098Z,524.00
2018-03-24T05:32:19.122Z,564.00
2018-03-24T05:33:19.146Z,604.00
2018-03-24T05:34:19.171Z,644.00
2018-03-24T05:35:19.197Z,688.00
2018-03-24T05:36:19.220Z,736.00
2018-03-24T05:37:19.244Z,784.00
2018-03-24T05:38:19.267Z,828.00
2018-03-24T05:39:19.292Z,876.00
2018-03-24T05:40:19.317Z,928.00
2018-03-24T05:41:19.341Z,976.00
2018-03-24T05:42:19.366Z,1024.00
2018-03-24T05:43:19.390Z,1072.00
2018-03-24T05:44:19.412Z,1128.00
2018-03-24T05:45:19.439Z,1176.00
2018-03-24T05:46:19.462Z,1228.00
2018-03-24T05:47:19.488Z,1276.00
2018-03-24T05:48:19.511Z,1328.00
2018-03-24T05:49:19.535Z,1380.00
2018-03-24T05:50:19.560Z,1428.00
2018-03-24T05:51:19.585Z,1480.00
2018-03-24T05:52:19.613Z,1536.00
2018-03-24T05:53:19.634Z,1588.00
2018-03-24T05:54:19.657Z,1644.00
2018-03-24T05:55:19.681Z,1700.00
2018-03-24T05:56:19.706Z,1752.00
2018-03-24T05:57:19.731Z,1808.00
2018-03-24T05:58:19.755Z,1860.00
2018-03-24T05:59:19.780Z,1912.00
2018-03-24T06:00:19.804Z,1964.00
2018-03-24T06:01:19.828Z,2012.00
2018-03-24T06:02:19.854Z,2064.00
2018-03-24T06:03:19.878Z,2116.00
2018-03-24T06:04:19.900Z,2168.00
2018-03-24T06:05:19.926Z,2216.00
2018-03-24T06:06:19.952Z,2268.00
2018-03-24T06:07:19.976Z,2312.00
2018-03-24T06:08:20.000Z,2364.00
2018-03-24T06:09:20.025Z,2416.00
2018-03-24T06:10:20.050Z,2468.00
2018-03-24T06:11:20.074Z,2520.00
2018-03-24T06:12:20.102Z,2572.00
2018-03-24T06:13:20.124Z,2620.00
2018-03-24T06:14:20.150Z,2664.00
2018-03-24T06:15:20.173Z,2716.00
2018-03-24T06:16:20.197Z,2768.00
2018-03-24T06:17:20.222Z,2820.00
2018-03-24T06:18:20.247Z,2868.00
2018-03-24T06:19:20.276Z,2912.00
2018-03-24T06:20:20.297Z,2956.00
2018-03-24T06:21:20.322Z,3000.00
2018-03-24T06:22:20.404Z,3048.00
2018-03-24T06:23:20.381Z,3096.00
2018-03-24T06:24:20.397Z,3156.00
2018-03-24T06:25:20.422Z,3204.00
2018-03-24T06:26:20.447Z,3248.00
2018-03-24T06:27:20.474Z,3292.00
2018-03-24T06:28:20.500Z,3332.00
2018-03-24T06:29:20.523Z,3368.00
2018-03-24T06:30:20.547Z,3408.00
2018-03-24T06:31:20.574Z,3448.00
2018-03-24T06:32:20.628Z,3492.00
2018-03-24T06:33:20.624Z,3536.00
2018-03-24T06:34:20.648Z,3572.00
2018-03-24T06:35:20.676Z,3604.00
2018-03-24T06:36:20.699Z,3628.00
2018-03-24T06:37:20.725Z,3652.00
2018-03-24T06:38:20.750Z,3692.00
2018-03-24T06:39:20.775Z,3732.00
2018-03-24T06:40:20.800Z,3768.00
2018-03-24T06:41:20.827Z,3800.00
2018-03-24T06:42:20.851Z,3844.00
2018-03-24T06:43:20.877Z,3888.00
2018-03-24T06:44:20.902Z,3940.00
2018-03-24T06:45:20.931Z,3984.00
2018-03-24T06:46:20.957Z,4032.00
2018-03-24T06:47:20.979Z,4076.00
2018-03-24T06:48:21.004Z,4116.00
2018-03-24T06:49:21.034Z,4152.00
2018-03-24T06:50:21.056Z,4200.00
2018-03-24T06:51:21.086Z,4248.00
2018-03-24T06:52:21.106Z,4292.00
2018-03-24T06:53:21.131Z,4332.00
2018-03-24T06:54:21.163Z,4380.00
2018-03-24T06:55:21.186Z,4416.00
2018-03-24T06:56:21.208Z,4460.00
2018-03-24T06:57:21.235Z,4500.00
2018-03-24T06:58:21.261Z,4548.00
2018-03-24T06:59:21.287Z,4588.00
2018-03-24T07:00:21.312Z,4632.00
2018-03-24T07:01:21.339Z,4676.00
2018-03-24T07:02:21.365Z,4720.00
2018-03-24T07:03:21.391Z,4760.00
2018-03-24T07:04:21.417Z,4808.00
2018-03-24T07:05:21.443Z,4852.00
2018-03-24T07:06:21.475Z,4900.00
2018-03-24T07:07:21.495Z,4944.00
2018-03-24T07:08:21.522Z,4992.00
2018-03-24T07:09:21.548Z,5040.00
2018-03-24T07:10:21.574Z,5092.00
2018-03-24T07:11:21.601Z,5132.00
2018-03-24T07:12:21.627Z,5184.00
2018-03-24T07:13:21.653Z,5232.00
2018-03-24T07:14:21.680Z,5280.00
2018-03-24T07:15:21.706Z,5324.00
2018-03-24T07:16:21.733Z,5376.00
2018-03-24T07:17:21.759Z,5432.00
2018-03-24T07:18:21.786Z,5484.00
2018-03-24T07:19:21.813Z,5540.00
2018-03-24T07:20:21.841Z,5604.00
2018-03-24T07:21:21.867Z,5664.00
2018-03-24T07:22:21.894Z,5716.00
2018-03-24T07:23:21.921Z,5784.00
2018-03-24T07:24:21.948Z,5856.00
2018-03-24T07:25:21.980Z,5916.00
2018-03-24T07:26:22.003Z,5968.00
2018-03-24T07:27:22.029Z,6032.00
2018-03-24T07:28:22.057Z,6112.00
2018-03-24T07:29:22.082Z,6184.00
2018-03-24T07:30:22.111Z,6236.00
2018-03-24T07:31:22.138Z,6292.00
2018-03-24T07:32:22.164Z,6368.00
2018-03-24T07:33:22.193Z,6424.00
2018-03-24T07:34:22.223Z,6472.00
2018-03-24T07:35:22.250Z,6532.00
2018-03-24T07:36:22.274Z,6588.00
2018-03-24T07:37:22.301Z,6668.00
2018-03-24T07:38:22.330Z,6748.00
2018-03-24T07:39:22.358Z,6828.00
2018-03-24T07:40:22.388Z,6884.00
2018-03-24T07:41:22.414Z,6940.00
2018-03-24T07:42:22.442Z,7000.00
2018-03-24T07:43:22.470Z,7064.00
2018-03-24T07:44:22.497Z,7128.00
2018-03-24T07:45:22.525Z,7212.00
2018-03-24T07:46:22.553Z,7280.00
2018-03-24T07:47:22.582Z,7332.00
2018-03-24T07:48:22.609Z,7388.00
2018-03-24T07:49:22.637Z,7464.00
2018-03-24T07:50:22.666Z,7536.00
2018-03-24T07:51:22.693Z,7600.00
2018-03-24T07:52:22.722Z,7672.00
2018-03-24T07:53:22.756Z,7720.00
2018-03-24T07:54:22.779Z,7776.00
2018-03-24T07:55:22.808Z,7848.00
2018-03-24T07:56:22.836Z,7920.00
2018-03-24T07:57:22.865Z,7976.00
2018-03-24T07:58:22.894Z,8032.00
2018-03-24T07:59:22.922Z,8096.00
2018-03-24T08:00:22.950Z,8164.00
2018-03-24T08:01:22.979Z,8236.00
2018-03-24T08:02:23.008Z,8340.00
2018-03-24T08:03:23.038Z,8412.00
2018-03-24T08:04:23.065Z,8460.00
2018-03-24T08:05:23.095Z,8508.00
2018-03-24T08:06:23.126Z,8560.00
2018-03-24T08:07:23.154Z,8660.00
2018-03-24T08:08:23.183Z,8752.00
2018-03-24T08:09:23.212Z,8804.00
2018-03-24T08:10:23.242Z,8844.00
2018-03-24T08:11:23.271Z,8916.00
2018-03-24T08:12:23.301Z,9012.00
2018-03-24T08:13:23.330Z,9096.00
2018-03-24T08:14:23.361Z,9148.00
2018-03-24T08:15:23.390Z,9224.00
2018-03-24T08:16:23.419Z,9268.00
2018-03-24T08:17:23.449Z,9328.00
2018-03-24T08:18:23.480Z,9412.00
2018-03-24T08:19:23.510Z,9456.00
2018-03-24T08:20:23.539Z,9528.00
2018-03-24T08:21:23.569Z,9628.00
2018-03-24T08:22:23.603Z,9688.00
2018-03-24T08:23:23.630Z,9752.00
2018-03-24T08:24:23.664Z,9808.00
2018-03-24T08:25:23.689Z,9844.00
2018-03-24T08:26:23.721Z,9900.00
2018-03-24T08:27:23.752Z,9972.00
2018-03-24T08:28:23.781Z,10020.00
2018-03-24T08:29:23.818Z,10048.00
2018-03-24T08:30:23.900Z,10088.00
2018-03-24T08:31:23.875Z,10164.00
2018-03-24T08:32:23.904Z,10156.00
2018-03-24T08:33:23.934Z,10176.00
2018-03-24T08:34:23.968Z,10188.00
2018-03-24T08:35:23.998Z,10240.00
2018-03-24T08:36:24.029Z,10276.00
2018-03-24T08:37:24.060Z,10308.00
2018-03-24T08:38:24.097Z,10348.00
2018-03-24T08:39:24.126Z,10408.00
2018-03-24T08:40:24.156Z,10476.00
2018-03-24T08:41:24.184Z,10528.00
2018-03-24T08:42:24.219Z,10536.00
2018-03-24T08:43:24.250Z,10576.00
2018-03-24T08:44:24.280Z,10628.00
2018-03-24T08:45:24.313Z,10644.00
2018-03-24T08:46:24.350Z,10728.00
2018-03-24T08:47:24.380Z,10852.00
2018-03-24T08:48:24.408Z,10920.00
2018-03-24T08:49:24.439Z,10936.00
2018-03-24T08:50:24.472Z,11072.00
2018-03-24T08:51:24.505Z,11228.00
2018-03-24T08:52:24.534Z,11376.00
2018-03-24T08:53:24.568Z,11916.00
2018-03-24T08:54:24.600Z,13568.00
2018-03-24T08:55:24.686Z,16560.00
2018-03-24T08:56:24.666Z,19552.00
2018-03-24T08:57:24.694Z,20800.00
2018-03-24T08:58:24.727Z,21408.00
2018-03-24T08:59:24.758Z,21696.00
2018-03-24T09:00:24.790Z,22400.00
2018-03-24T09:01:24.822Z,24736.00
2018-03-24T09:02:24.855Z,33440.00
2018-03-24T09:03:24.914Z,46112.00
2018-03-24T09:04:24.925Z,55872.00
2018-03-24T09:05:24.953Z,61440.00
2018-03-24T09:06:24.988Z,65632.00
2018-03-24T09:07:25.021Z,66816.00
2018-03-24T09:08:25.055Z,65632.00
2018-03-24T09:09:25.088Z,63936.00
2018-03-24T09:10:25.124Z,64064.00
2018-03-24T09:11:25.157Z,66592.00
2018-03-24T09:12:25.193Z,67168.00
2018-03-24T09:13:25.227Z,66304.00
2018-03-24T09:14:25.272Z,68224.00
2018-03-24T09:15:25.299Z,70848.00
2018-03-24T09:16:25.334Z,72096.00
2018-03-24T09:17:25.371Z,71360.00
2018-03-24T09:18:25.404Z,69952.00
2018-03-24T09:19:25.442Z,71520.00
2018-03-24T09:20:25.478Z,72896.00
2018-03-24T09:21:25.515Z,71328.00
2018-03-24T09:22:25.552Z,73120.00
2018-03-24T09:23:25.590Z,70816.00
2018-03-24T09:24:25.665Z,74528.00
2018-03-24T09:25:25.666Z,77504.00
2018-03-24T09:26:25.702Z,77888.00
2018-03-24T09:27:25.741Z,79392.00
2018-03-24T09:28:25.778Z,78048.00
2018-03-24T09:29:25.818Z,76192.00
2018-03-24T09:30:25.856Z,78080.00
2018-03-24T09:31:25.895Z,78368.00
2018-03-24T09:32:25.933Z,80032.00
2018-03-24T09:33:25.974Z,82240.00
2018-03-24T09:34:26.014Z,81920.00
2018-03-24T09:35:26.051Z,79648.00
2018-03-24T09:36:26.092Z,78464.00
2018-03-24T09:37:26.133Z,80000.00
2018-03-24T09:38:26.175Z,79488.00
2018-03-24T09:39:26.212Z,78048.00
2018-03-24T09:40:26.251Z,80160.00
2018-03-24T09:41:26.291Z,82624.00
2018-03-24T09:42:26.333Z,80896.00
2018-03-24T09:43:26.374Z,79648.00
2018-03-24T09:44:26.413Z,80256.00
2018-03-24T09:45:26.454Z,81504.00
2018-03-24T09:46:26.495Z,80096.00
2018-03-24T09:47:26.583Z,77280.00
2018-03-24T09:48:26.577Z,74720.00
2018-03-24T09:49:26.618Z,67392.00
2018-03-24T09:50:26.659Z,63104.00
2018-03-24T09:51:26.701Z,67712.00
2018-03-24T09:52:26.742Z,79840.00
2018-03-24T09:53:26.788Z,81088.00
2018-03-24T09:54:26.826Z,82624.00
2018-03-24T09:55:26.866Z,85472.00
2018-03-24T09:56:26.909Z,81152.00
2018-03-24T09:57:26.950Z,84032.00
2018-03-24T09:58:26.992Z,88160.00
2018-03-24T09:59:27.035Z,86560.00
2018-03-24T10:00:27.077Z,89664.00
2018-03-24T10:01:27.119Z,89824.00
2018-03-24T10:02:27.161Z,90720.00
2018-03-24T10:03:27.202Z,90880.00
2018-03-24T10:04:27.244Z,90208.00
2018-03-24T10:05:27.286Z,89952.00
2018-03-24T10:06:27.330Z,85824.00
2018-03-24T10:07:27.372Z,80512.00
2018-03-24T10:08:27.413Z,81984.00
2018-03-24T10:09:27.456Z,86912.00
2018-03-24T10:10:27.499Z,84000.00
2018-03-24T10:11:27.545Z,80512.00
2018-03-24T10:12:27.583Z,80128.00
2018-03-24T10:13:27.625Z,82368.00
2018-03-24T10:14:27.668Z,85024.00
2018-03-24T10:15:27.713Z,87296.00
2018-03-24T10:16:27.755Z,83680.00
2018-03-24T10:17:27.798Z,79840.00
2018-03-24T10:18:27.840Z,83488.00
2018-03-24T10:19:27.886Z,88000.00
2018-03-24T10:20:27.928Z,87520.00
2018-03-24T10:21:27.971Z,88224.00
2018-03-24T10:22:28.052Z,90496.00
2018-03-24T10:23:28.059Z,91968.00
2018-03-24T10:24:28.100Z,88800.00
2018-03-24T10:25:28.144Z,85024.00
2018-03-24T10:26:28.189Z,89856.00
2018-03-24T10:27:28.233Z,96576.00
2018-03-24T10:28:28.276Z,92992.00
2018-03-24T10:29:28.321Z,89472.00
2018-03-24T10:30:28.371Z,94048.00
2018-03-24T10:31:28.408Z,95200.00
2018-03-24T10:32:28.452Z,95552.00
2018-03-24T10:33:28.496Z,90720.00
2018-03-24T10:34:28.541Z,90880.00
2018-03-24T10:35:28.636Z,92032.00
2018-03-24T10:36:28.628Z,87744.00
2018-03-24T10:37:28.673Z,88128.00
2018-03-24T10:38:28.719Z,90400.00
2018-03-24T10:39:28.764Z,90656.00
2018-03-24T10:40:28.807Z,91168.00
2018-03-24T10:41:28.916Z,93312.00
2018-03-24T10:42:28.898Z,94976.00
2018-03-24T10:43:28.943Z,96768.00
2018-03-24T10:44:28.986Z,94016.00
2018-03-24T10:45:29.033Z,96288.00
2018-03-24T10:46:29.077Z,97600.00
2018-03-24T10:47:29.124Z,99328.00
2018-03-24T10:48:29.167Z,96704.00
2018-03-24T10:49:29.214Z,94976.00
2018-03-24T10:50:29.259Z,96960.00
2018-03-24T10:51:29.305Z,97952.00
2018-03-24T10:52:29.394Z,96864.00
2018-03-24T10:53:29.394Z,95232.00
2018-03-24T10:54:29.442Z,93280.00
2018-03-24T10:55:29.488Z,96000.00
2018-03-24T10:56:29.532Z,99168.00
2018-03-24T10:57:29.579Z,102080.00
2018-03-24T10:58:29.625Z,103136.00
2018-03-24T10:59:29.672Z,101728.00
2018-03-24T11:00:29.716Z,103072.00
2018-03-24T11:01:29.762Z,99040.00
2018-03-24T11:02:29.810Z,94176.00
2018-03-24T11:03:29.855Z,98048.00
2018-03-24T11:04:29.901Z,101472.00
2018-03-24T11:05:29.947Z,101952.00
2018-03-24T11:06:29.994Z,101568.00
2018-03-24T11:07:30.041Z,103328.00
2018-03-24T11:08:30.086Z,104256.00
2018-03-24T11:09:30.133Z,103104.00
2018-03-24T11:10:30.179Z,104512.00
2018-03-24T11:11:30.226Z,103904.00
2018-03-24T11:12:30.273Z,102368.00
2018-03-24T11:13:30.319Z,104928.00
2018-03-24T11:14:30.366Z,108544.00
2018-03-24T11:15:30.412Z,106528.00
2018-03-24T11:16:30.458Z,103520.00
2018-03-24T11:17:30.506Z,107744.00
2018-03-24T11:18:30.552Z,105792.00
2018-03-24T11:19:30.598Z,101120.00
2018-03-24T11:20:30.644Z,100320.00
2018-03-24T11:21:30.694Z,101888.00
2018-03-24T11:22:30.740Z,100480.00
2018-03-24T11:23:30.788Z,101024.00
2018-03-24T11:24:30.832Z,102208.00
2018-03-24T11:25:30.878Z,105248.00
2018-03-24T11:26:30.956Z,106176.00
2018-03-24T11:27:30.978Z,107488.00
2018-03-24T11:28:31.019Z,106528.00
2018-03-24T11:29:31.064Z,103616.00
2018-03-24T11:30:31.113Z,103744.00
2018-03-24T11:31:31.160Z,102240.00
2018-03-24T11:32:31.208Z,102432.00
2018-03-24T11:33:31.254Z,103680.00
2018-03-24T11:34:31.303Z,102752.00
2018-03-24T11:35:31.350Z,103712.00
2018-03-24T11:36:31.396Z,107840.00
2018-03-24T11:37:31.449Z,110048.00
2018-03-24T11:38:31.493Z,107840.00
2018-03-24T11:39:31.542Z,107456.00
2018-03-24T11:40:31.594Z,111232.00
2018-03-24T11:41:31.639Z,109216.00
2018-03-24T11:42:31.687Z,107232.00
2018-03-24T11:43:31.735Z,108544.00
2018-03-24T11:44:31.783Z,108096.00
2018-03-24T11:45:31.832Z,108416.00
2018-03-24T11:46:31.882Z,104800.00
2018-03-24T11:47:31.931Z,103616.00
2018-03-24T11:48:31.977Z,106656.00
2018-03-24T11:49:32.028Z,104544.00
2018-03-24T11:50:32.075Z,98688.00
2018-03-24T11:51:32.126Z,100928.00
2018-03-24T11:52:32.175Z,107744.00
2018-03-24T11:53:32.224Z,109152.00
2018-03-24T11:54:32.273Z,108512.00
2018-03-24T11:55:32.324Z,113120.00
2018-03-24T11:56:32.372Z,118656.00
2018-03-24T11:57:32.421Z,118208.00
2018-03-24T11:58:32.472Z,118048.00
2018-03-24T11:59:32.531Z,114944.00
2018-03-24T12:00:32.574Z,113760.00
2018-03-24T12:01:32.621Z,111616.00
2018-03-24T12:02:32.671Z,109056.00
2018-03-24T12:03:32.722Z,106880.00
2018-03-24T12:04:32.772Z,107200.00
2018-03-24T12:05:32.821Z,110464.00
2018-03-24T12:06:32.878Z,105216.00
2018-03-24T12:07:32.928Z,101568.00
2018-03-24T12:08:32.971Z,106976.00
2018-03-24T12:09:33.024Z,109152.00
2018-03-24T12:10:33.078Z,108032.00
2018-03-24T12:11:33.128Z,108864.00
2018-03-24T12:12:33.174Z,108896.00
2018-03-24T12:13:33.231Z,106688.00
2018-03-24T12:14:33.276Z,109248.00
2018-03-24T12:15:33.328Z,111392.00
2018-03-24T12:16:33.377Z,110400.00
2018-03-24T12:17:33.428Z,112736.00
2018-03-24T12:18:33.479Z,111424.00
2018-03-24T12:19:33.530Z,110848.00
2018-03-24T12:20:33.580Z,114176.00
2018-03-24T12:21:33.883Z,115712.00
2018-03-24T12:22:33.684Z,118976.00
2018-03-24T12:23:33.736Z,112800.00
2018-03-24T12:24:33.785Z,114048.00
2018-03-24T12:25:33.838Z,115008.00